createdAt,value
2023-03-24T00:02:13.831Z,67.80
2023-03-24T00:05:38.523Z,67.83
2023-03-24T00:09:04.021Z,67.95
2023-03-24T00:12:28.048Z,67.96
2023-03-24T00:15:51.952Z,67.95
2023-03-24T00:19:16.189Z,68.26
2023-03-24T00:22:42.452Z,68.21
2023-03-24T00:26:15.354Z,68.33
2023-03-24T00:29:40.312Z,68.24
2023-03-24T00:33:04.458Z,68.19
2023-03-24T00:36:29.844Z,68.23
2023-03-24T00:39:54.195Z,68.26
2023-03-24T00:43:19.200Z,68.29
2023-03-24T00:46:46.340Z,68.36
2023-03-24T00:50:17.253Z,68.36
2023-03-24T00:53:43.760Z,68.39
2023-03-24T00:57:13.040Z,68.62
2023-03-24T01:00:42.481Z,68.76
2023-03-24T01:04:07.280Z,68.93
2023-03-24T01:07:31.760Z,69.01
2023-03-24T01:10:57.403Z,68.87
2023-03-24T01:14:21.508Z,69.32
2023-03-24T01:17:47.260Z,69.10
2023-03-24T01:21:13.264Z,69.29
2023-03-24T01:24:37.230Z,69.17
2023-03-24T01:28:01.176Z,69.21
2023-03-24T01:31:25.059Z,69.34
2023-03-24T01:34:49.294Z,69.47
2023-03-24T01:38:15.444Z,69.87
2023-03-24T01:41:42.372Z,69.76
2023-03-24T01:45:40.913Z,69.97
2023-03-24T01:49:09.215Z,70.23
2023-03-24T01:52:37.385Z,69.90
2023-03-24T01:56:03.360Z,70.12
2023-03-24T01:59:36.725Z,70.49
2023-03-24T02:03:12.709Z,70.59
2023-03-24T02:06:45.129Z,70.54
2023-03-24T02:10:14.604Z,70.39
2023-03-24T02:13:38.456Z,70.60
2023-03-24T02:17:23.937Z,70.62
2023-03-24T02:21:23.657Z,70.48
2023-03-24T02:25:12.618Z,70.95
2023-03-24T02:28:39.645Z,70.93
2023-03-24T02:32:33.257Z,70.88
2023-03-24T02:36:20.275Z,71.08
2023-03-24T02:40:07.053Z,70.81
2023-03-24T02:43:44.605Z,70.86
2023-03-24T02:47:19.038Z,70.90
2023-03-24T02:50:57.490Z,71.00
2023-03-24T02:54:48.362Z,71.21
2023-03-24T02:58:21.042Z,71.51
2023-03-24T03:02:05.296Z,71.53
2023-03-24T03:05:43.509Z,71.79
2023-03-24T03:09:12.399Z,72.02
2023-03-24T03:12:39.225Z,72.05
2023-03-24T03:16:10.541Z,72.08
2023-03-24T03:19:39.861Z,72.23
2023-03-24T03:23:14.378Z,72.60
2023-03-24T03:26:39.220Z,72.49
2023-03-24T03:30:12.317Z,72.51
2023-03-24T03:33:45.758Z,72.72
2023-03-24T03:37:44.827Z,72.96
2023-03-24T03:41:10.823Z,74.23
2023-03-24T03:44:35.496Z,73.73
2023-03-24T03:47:59.552Z,73.69
2023-03-24T03:51:23.650Z,73.86
2023-03-24T03:54:54.107Z,73.84
2023-03-24T03:58:18.082Z,74.16
2023-03-24T04:01:50.792Z,74.25
2023-03-24T04:06:19.861Z,74.14
2023-03-24T04:10:09.475Z,74.25
2023-03-24T04:14:11.433Z,74.26
2023-03-24T04:18:00.610Z,74.38
2023-03-24T04:21:59.480Z,74.85
2023-03-24T04:25:35.215Z,74.70
2023-03-24T04:29:19.605Z,74.90
2023-03-24T04:33:00.301Z,74.61
2023-03-24T04:36:42.811Z,74.47
2023-03-24T04:40:27.363Z,74.61
2023-03-24T04:43:51.781Z,75.01
2023-03-24T04:47:16.541Z,74.48
2023-03-24T04:50:57.432Z,74.80
2023-03-24T04:54:23.505Z,74.51
2023-03-24T04:57:50.407Z,74.44
2023-03-24T05:01:17.225Z,74.35
2023-03-24T05:04:45.940Z,74.07
2023-03-24T05:08:16.577Z,73.85
2023-03-24T05:11:40.920Z,73.57
2023-03-24T05:15:07.004Z,73.30
2023-03-24T05:18:33.867Z,73.00
2023-03-24T05:21:57.763Z,72.81
2023-03-24T05:25:22.030Z,72.49
2023-03-24T05:28:46.497Z,72.09
2023-03-24T05:32:11.120Z,71.68
2023-03-24T05:35:34.999Z,71.22
2023-03-24T05:38:59.066Z,70.80
2023-03-24T05:42:31.552Z,70.29
2023-03-24T05:45:57.588Z,69.70
2023-03-24T05:49:26.684Z,69.14
2023-03-24T05:52:52.719Z,68.71
2023-03-24T05:56:38.944Z,68.24
2023-03-24T06:00:11.370Z,67.90
2023-03-24T06:03:51.657Z,67.77
2023-03-24T06:07:16.588Z,67.54
2023-03-24T06:10:41.674Z,67.52
2023-03-24T06:14:05.757Z,67.46
2023-03-24T06:17:38.991Z,67.51
2023-03-24T06:21:08.622Z,67.34
2023-03-24T06:24:35.451Z,67.04
2023-03-24T06:28:06.627Z,66.76
2023-03-24T06:31:32.756Z,66.58
2023-03-24T06:34:56.991Z,66.19
2023-03-24T06:38:29.034Z,66.13
2023-03-24T06:41:53.490Z,65.97
2023-03-24T06:45:17.536Z,65.94
2023-03-24T06:48:45.073Z,65.92
2023-03-24T06:52:09.142Z,66.03
2023-03-24T06:55:35.736Z,66.18
2023-03-24T06:58:59.996Z,66.44
2023-03-24T07:02:34.525Z,66.74
2023-03-24T07:06:01.095Z,66.98
2023-03-24T07:09:24.965Z,67.40
2023-03-24T07:12:49.360Z,67.61
2023-03-24T07:16:13.499Z,68.03
2023-03-24T07:19:37.969Z,68.39
2023-03-24T07:23:25.786Z,68.79
2023-03-24T07:26:54.754Z,69.05
2023-03-24T07:30:27.278Z,69.33
2023-03-24T07:33:59.773Z,69.49
2023-03-24T07:37:25.773Z,69.85
2023-03-24T07:40:49.638Z,69.96
2023-03-24T07:44:13.759Z,70.53
2023-03-24T07:47:47.576Z,71.00
2023-03-24T07:51:11.631Z,71.27
2023-03-24T07:54:52.728Z,71.36
2023-03-24T07:58:39.805Z,71.74
2023-03-24T08:02:19.466Z,71.89
2023-03-24T08:05:49.427Z,71.77
2023-03-24T08:09:17.354Z,71.75
2023-03-24T08:12:41.941Z,71.67
2023-03-24T08:16:05.918Z,71.38
2023-03-24T08:19:30.049Z,71.01
2023-03-24T08:22:54.738Z,70.51
2023-03-24T08:26:19.869Z,69.92
2023-03-24T08:29:44.465Z,69.42
2023-03-24T08:33:08.983Z,68.96
2023-03-24T08:36:33.754Z,68.33
2023-03-24T08:39:58.870Z,67.41
2023-03-24T08:43:24.780Z,67.35
2023-03-24T08:46:49.019Z,67.47
2023-03-24T08:50:13.462Z,66.90
2023-03-24T08:53:39.999Z,66.69
2023-03-24T08:57:03.902Z,66.50
2023-03-24T09:00:29.075Z,66.66
2023-03-24T09:03:53.129Z,66.28
2023-03-24T09:07:17.091Z,66.13
2023-03-24T09:10:42.680Z,66.03
2023-03-24T09:14:06.925Z,66.14
2023-03-24T09:17:32.817Z,65.78
2023-03-24T09:20:57.509Z,65.54
2023-03-24T09:24:21.674Z,65.36
2023-03-24T09:27:45.967Z,65.25
2023-03-24T09:31:09.981Z,64.93
2023-03-24T09:34:34.600Z,64.04
2023-03-24T09:37:58.523Z,63.73
2023-03-24T09:41:29.402Z,63.01
2023-03-24T09:44:59.365Z,63.21
2023-03-24T09:48:47.947Z,63.55
2023-03-24T09:52:15.885Z,63.79
2023-03-24T09:55:43.283Z,63.51
2023-03-24T09:59:14.856Z,63.00
2023-03-24T10:02:39.120Z,62.07
2023-03-24T10:06:11.928Z,60.65
2023-03-24T10:09:37.446Z,58.62
2023-03-24T10:13:33.913Z,58.59
2023-03-24T10:17:15.477Z,57.91
2023-03-24T10:20:46.684Z,57.26
2023-03-24T10:24:38.364Z,57.87
2023-03-24T10:28:39.305Z,58.15
2023-03-24T10:32:30.245Z,57.54
2023-03-24T10:36:12.563Z,57.09
2023-03-24T10:39:44.613Z,57.13
2023-03-24T10:43:09.647Z,57.21
2023-03-24T10:46:34.646Z,56.68
2023-03-24T10:50:14.864Z,56.73
2023-03-24T10:53:39.762Z,56.24
2023-03-24T10:57:08.227Z,56.31
2023-03-24T11:00:33.644Z,55.91
2023-03-24T11:04:07.292Z,55.17
2023-03-24T11:07:36.518Z,55.14
2023-03-24T11:11:00.892Z,54.84
2023-03-24T11:14:28.983Z,54.36
2023-03-24T11:18:01.727Z,53.39
2023-03-24T11:21:27.696Z,52.90
2023-03-24T11:24:56.177Z,52.66
2023-03-24T11:28:27.950Z,53.55
2023-03-24T11:31:57.494Z,53.36
2023-03-24T11:35:27.055Z,53.23
2023-03-24T11:39:04.152Z,52.64
2023-03-24T11:42:28.949Z,52.38
2023-03-24T11:46:02.369Z,52.59
2023-03-24T11:49:34.944Z,52.67
2023-03-24T11:53:07.663Z,53.05
2023-03-24T11:56:46.504Z,53.53
2023-03-24T12:00:27.944Z,52.88
2023-03-24T12:04:26.294Z,51.59
2023-03-24T12:08:02.967Z,51.28
2023-03-24T12:11:59.584Z,51.08
2023-03-24T12:16:04.530Z,49.87
2023-03-24T12:19:51.934Z,49.76
2023-03-24T12:23:32.883Z,50.07
2023-03-24T12:27:01.187Z,50.20
2023-03-24T12:30:56.533Z,49.76
2023-03-24T12:34:54.642Z,49.36
2023-03-24T12:38:24.036Z,48.53
2023-03-24T12:42:17.391Z,48.29
2023-03-24T12:45:53.297Z,49.06
2023-03-24T12:49:31.045Z,49.01
2023-03-24T12:53:17.962Z,48.60
2023-03-24T12:56:54.968Z,48.17
2023-03-24T13:00:19.454Z,48.13
2023-03-24T13:03:48.739Z,47.57
2023-03-24T13:07:14.865Z,47.66
2023-03-24T13:10:40.923Z,48.19
2023-03-24T13:14:10.436Z,48.13
2023-03-24T13:17:40.761Z,48.59
2023-03-24T13:21:11.723Z,47.78
2023-03-24T13:24:35.909Z,47.78
2023-03-24T13:28:06.022Z,47.49
2023-03-24T13:31:35.832Z,47.45
2023-03-24T13:35:26.198Z,47.34
2023-03-24T13:39:01.089Z,47.24
2023-03-24T13:42:37.042Z,47.19
2023-03-24T13:46:10.811Z,45.83
2023-03-24T13:49:35.795Z,46.21
2023-03-24T13:53:07.931Z,46.36
2023-03-24T13:56:36.132Z,46.90
2023-03-24T14:00:11.891Z,47.46
2023-03-24T14:03:44.510Z,47.34
2023-03-24T14:07:32.111Z,47.95
2023-03-24T14:10:56.572Z,48.04
2023-03-24T14:14:22.374Z,48.17
2023-03-24T14:17:48.940Z,48.72
2023-03-24T14:21:12.875Z,49.27
2023-03-24T14:24:37.204Z,48.87
2023-03-24T14:28:22.301Z,48.97
2023-03-24T14:32:02.350Z,49.19
2023-03-24T14:35:35.689Z,49.14
2023-03-24T14:39:12.509Z,49.20
2023-03-24T14:42:36.361Z,49.06
2023-03-24T14:46:06.545Z,49.46
2023-03-24T14:49:32.975Z,49.74
2023-03-24T14:53:02.133Z,49.86
2023-03-24T14:56:39.485Z,50.09
2023-03-24T15:00:19.734Z,50.15
2023-03-24T15:04:05.256Z,50.78
2023-03-24T15:07:29.103Z,51.00
2023-03-24T15:11:04.225Z,51.28
2023-03-24T15:14:28.745Z,51.50
2023-03-24T15:17:53.665Z,51.95
2023-03-24T15:21:22.795Z,51.86
2023-03-24T15:24:52.221Z,52.25
2023-03-24T15:28:22.608Z,52.64
2023-03-24T15:31:46.786Z,52.96
2023-03-24T15:35:16.647Z,53.26
2023-03-24T15:38:47.330Z,53.35
2023-03-24T15:42:18.561Z,53.48
2023-03-24T15:46:04.841Z,53.75
2023-03-24T15:49:37.237Z,53.82
2023-03-24T15:53:04.289Z,53.91
2023-03-24T15:56:31.711Z,53.93
2023-03-24T16:00:01.319Z,53.76
2023-03-24T16:03:26.882Z,53.52
2023-03-24T16:06:54.299Z,53.32
2023-03-24T16:10:33.818Z,53.07
2023-03-24T16:13:59.087Z,53.06
2023-03-24T16:17:23.049Z,53.14
2023-03-24T16:20:47.038Z,53.20
2023-03-24T16:24:11.386Z,53.36
2023-03-24T16:27:35.267Z,53.27
2023-03-24T16:31:04.320Z,53.29
2023-03-24T16:34:28.559Z,53.25
2023-03-24T16:37:52.435Z,53.35
2023-03-24T16:41:17.028Z,53.46
2023-03-24T16:44:40.915Z,53.54
2023-03-24T16:48:05.131Z,53.60
2023-03-24T16:51:29.895Z,53.58
2023-03-24T16:54:54.697Z,53.61
2023-03-24T16:58:19.113Z,53.80
2023-03-24T17:01:46.591Z,53.96
2023-03-24T17:05:38.235Z,54.05
2023-03-24T17:09:02.063Z,54.18
2023-03-24T17:12:26.160Z,54.31
2023-03-24T17:15:50.676Z,54.46
2023-03-24T17:19:17.591Z,54.74
2023-03-24T17:22:45.876Z,54.98
2023-03-24T17:26:09.751Z,55.25
2023-03-24T17:29:33.602Z,55.22
2023-03-24T17:32:58.384Z,55.43
2023-03-24T17:36:22.337Z,55.72
2023-03-24T17:39:46.127Z,55.88
2023-03-24T17:43:10.145Z,56.01
2023-03-24T17:46:35.011Z,56.06
2023-03-24T17:49:59.134Z,55.96
2023-03-24T17:53:25.863Z,56.26
2023-03-24T17:56:49.936Z,56.27
2023-03-24T18:00:16.516Z,56.62
2023-03-24T18:03:40.699Z,56.63
2023-03-24T18:07:05.005Z,56.74
2023-03-24T18:10:28.799Z,56.83
2023-03-24T18:13:52.769Z,57.07
2023-03-24T18:17:16.899Z,57.19
2023-03-24T18:20:41.272Z,57.24
2023-03-24T18:24:06.965Z,57.27
2023-03-24T18:27:31.356Z,57.41
2023-03-24T18:30:56.958Z,57.43
2023-03-24T18:34:22.182Z,57.29
2023-03-24T18:37:47.394Z,57.29
2023-03-24T18:41:13.040Z,57.25
2023-03-24T18:44:37.064Z,57.30
2023-03-24T18:48:01.119Z,57.37
2023-03-24T18:51:26.914Z,57.34
2023-03-24T18:54:51.250Z,57.42
2023-03-24T18:58:16.076Z,57.38
2023-03-24T19:01:40.173Z,57.41
2023-03-24T19:05:05.323Z,57.30
2023-03-24T19:08:29.521Z,57.41
2023-03-24T19:11:53.362Z,57.29
2023-03-24T19:15:18.440Z,57.25
2023-03-24T19:18:42.452Z,57.27
2023-03-24T19:22:07.572Z,57.23
2023-03-24T19:25:31.902Z,57.14
2023-03-24T19:28:55.713Z,57.28
2023-03-24T19:32:19.604Z,57.25
2023-03-24T19:35:43.667Z,57.26
2023-03-24T19:39:07.742Z,57.33
2023-03-24T19:42:33.317Z,57.31
2023-03-24T19:46:03.776Z,57.47
2023-03-24T19:49:27.912Z,57.46
2023-03-24T19:52:52.058Z,57.41
2023-03-24T19:56:17.508Z,57.56
2023-03-24T19:59:41.403Z,57.76
2023-03-24T20:03:05.878Z,57.71
2023-03-24T20:06:30.447Z,57.77
2023-03-24T20:09:54.378Z,57.79
2023-03-24T20:13:18.658Z,57.90
2023-03-24T20:16:43.904Z,57.93
2023-03-24T20:20:10.420Z,57.91
2023-03-24T20:23:36.668Z,58.13
2023-03-24T20:27:00.942Z,58.06
2023-03-24T20:30:26.457Z,58.42
2023-03-24T20:33:50.394Z,58.40
2023-03-24T20:37:15.648Z,58.64
2023-03-24T20:40:39.624Z,59.09
2023-03-24T20:44:03.480Z,59.74
2023-03-24T20:47:27.511Z,59.67
2023-03-24T20:50:52.908Z,60.84
2023-03-24T20:54:17.085Z,61.87
2023-03-24T20:57:43.870Z,62.54
2023-03-24T21:01:22.328Z,63.28
2023-03-24T21:04:46.252Z,63.57
2023-03-24T21:08:10.315Z,63.93
2023-03-24T21:11:34.828Z,64.06
2023-03-24T21:14:58.716Z,64.49
2023-03-24T21:18:22.513Z,64.20
2023-03-24T21:21:49.530Z,65.09
2023-03-24T21:25:13.563Z,64.78
2023-03-24T21:28:37.504Z,65.14
2023-03-24T21:32:01.734Z,65.37
2023-03-24T21:35:26.183Z,65.16
2023-03-24T21:38:54.138Z,65.23
2023-03-24T21:42:19.532Z,65.32
2023-03-24T21:45:46.500Z,65.48
2023-03-24T21:49:11.274Z,65.43
2023-03-24T21:52:43.431Z,65.23
2023-03-24T21:56:09.352Z,66.25
2023-03-24T21:59:40.604Z,65.96
2023-03-24T22:03:05.741Z,66.01
2023-03-24T22:06:29.869Z,66.05
2023-03-24T22:09:54.455Z,66.51
2023-03-24T22:13:20.891Z,66.95
2023-03-24T22:16:44.723Z,67.91
2023-03-24T22:20:09.770Z,68.42
2023-03-24T22:23:36.788Z,68.30
2023-03-24T22:27:02.289Z,69.00
2023-03-24T22:30:26.229Z,68.83
2023-03-24T22:33:50.619Z,69.44
2023-03-24T22:37:14.603Z,69.50
2023-03-24T22:40:39.062Z,69.59
2023-03-24T22:44:02.982Z,68.92
2023-03-24T22:47:27.485Z,69.40
2023-03-24T22:50:52.131Z,69.95
2023-03-24T22:54:16.023Z,70.20
2023-03-24T22:57:39.868Z,70.32
2023-03-24T23:01:03.893Z,70.08
2023-03-24T23:04:27.889Z,70.45
2023-03-24T23:07:51.724Z,70.39
2023-03-24T23:11:15.654Z,70.40
2023-03-24T23:14:39.437Z,70.17
2023-03-24T23:18:03.592Z,70.32
2023-03-24T23:21:28.508Z,70.22
2023-03-24T23:25:01.975Z,69.85
2023-03-24T23:28:27.093Z,69.67
2023-03-24T23:31:51.081Z,69.91
2023-03-24T23:35:15.676Z,70.21
2023-03-24T23:38:50.630Z,70.27
2023-03-24T23:42:14.478Z,70.36
2023-03-24T23:45:38.664Z,70.31
2023-03-24T23:49:02.510Z,70.22
2023-03-24T23:52:28.420Z,70.49
2023-03-24T23:55:57.421Z,70.52
2023-03-24T23:59:23.115Z,70.71
